Terminal Aerodrome Forecast
Issued by NWS

Current Version | Previous Version | Text Only | Print | Product List | Glossary On
Versions: 1 2 3 4 5 6 7 8 9 10 11 12 13 14 15 16 17 18 19 20 21 22
000
FTUS45 KSLC 170540
TAFOGD
TAF
KOGD 170540Z 1706/1806 33004KT P6SM BKN040 BKN080
     FM171200 VRB04KT P6SM SCT080 SCT120
     FM171800 31006KT P6SM SCT030 SCT120
     FM180200 18005KT P6SM SCT060 SCT100=

USA.gov is the U.S. government's official web portal to all federal, state and local government web resources and services.